createdAt,value
2022-12-23T00:00:40.977Z,18.90
2022-12-23T00:03:08.263Z,19.83
2022-12-23T00:05:39.242Z,18.75
2022-12-23T00:08:07.224Z,20.15
2022-12-23T00:10:35.207Z,20.58
2022-12-23T00:13:20.571Z,32.40
2022-12-23T00:15:47.333Z,18.02
2022-12-23T00:18:14.097Z,18.08
2022-12-23T00:20:40.888Z,17.05
2022-12-23T00:23:07.725Z,16.13
2022-12-23T00:25:44.623Z,15.02
2022-12-23T00:28:16.933Z,18.08
2022-12-23T00:30:55.182Z,17.42
2022-12-23T00:33:27.751Z,17.83
2022-12-23T00:35:54.602Z,14.93
2022-12-23T00:38:41.787Z,19.55
2022-12-23T00:41:35.336Z,17.10
2022-12-23T00:44:03.717Z,19.67
2022-12-23T00:46:30.780Z,17.02
2022-12-23T00:49:16.300Z,18.85
2022-12-23T00:51:43.053Z,19.13
2022-12-23T00:54:09.775Z,16.15
2022-12-23T00:56:36.635Z,18.40
2022-12-23T00:59:03.769Z,15.27
2022-12-23T01:01:49.461Z,8.18
2022-12-23T01:04:35.919Z,10.30
2022-12-23T01:07:03.400Z,4.75
2022-12-23T01:09:30.409Z,12.85
2022-12-23T01:11:57.300Z,12.93
2022-12-23T01:14:24.834Z,12.77
2022-12-23T01:16:51.737Z,10.18
2022-12-23T01:19:18.565Z,8.30
2022-12-23T01:21:45.351Z,6.60
2022-12-23T01:24:12.229Z,9.00
2022-12-23T01:26:38.982Z,5.75
2022-12-23T01:29:05.758Z,5.28
2022-12-23T01:31:32.636Z,7.45
2022-12-23T01:33:59.389Z,6.43
2022-12-23T01:36:26.423Z,7.90
2022-12-23T01:38:55.074Z,6.00
2022-12-23T01:41:46.740Z,8.98
2022-12-23T01:44:49.978Z,7.43
2022-12-23T01:47:34.639Z,7.75
2022-12-23T01:50:06.733Z,9.45
2022-12-23T01:52:42.409Z,9.38
2022-12-23T01:55:10.132Z,8.20
2022-12-23T01:57:40.799Z,9.48
2022-12-23T02:00:28.761Z,11.98
2022-12-23T02:03:14.347Z,13.90
2022-12-23T02:05:44.182Z,9.20
2022-12-23T02:08:30.125Z,9.90
2022-12-23T02:11:06.318Z,9.60
2022-12-23T02:14:04.971Z,11.50
2022-12-23T02:16:38.980Z,11.15
2022-12-23T02:19:17.968Z,13.43
2022-12-23T02:22:07.773Z,12.15
2022-12-23T02:25:12.894Z,11.90
2022-12-23T02:28:07.165Z,11.32
2022-12-23T02:31:01.421Z,13.23
2022-12-23T02:33:44.991Z,14.65
2022-12-23T02:36:30.168Z,11.35
2022-12-23T02:39:06.137Z,9.82
2022-12-23T02:41:54.172Z,9.50
2022-12-23T02:44:28.422Z,8.27
2022-12-23T02:47:01.475Z,10.45
2022-12-23T02:49:34.223Z,10.55
2022-12-23T02:52:06.004Z,8.93
2022-12-23T02:54:38.815Z,8.93
2022-12-23T02:57:08.932Z,9.07
2022-12-23T02:59:41.770Z,8.18
2022-12-23T03:02:08.718Z,8.50
2022-12-23T03:04:36.504Z,10.80
2022-12-23T03:07:07.748Z,6.97
2022-12-23T03:09:56.512Z,9.68
2022-12-23T03:13:03.770Z,14.00
2022-12-23T03:15:52.433Z,4.00
2022-12-23T03:18:40.555Z,5.97
2022-12-23T03:21:20.023Z,7.32
2022-12-23T03:24:20.970Z,7.43
2022-12-23T03:27:15.237Z,5.32
2022-12-23T03:29:53.206Z,6.57
2022-12-23T03:32:21.915Z,8.20
2022-12-23T03:34:53.357Z,8.73
2022-12-23T03:37:22.291Z,5.60
2022-12-23T03:39:54.806Z,6.63
2022-12-23T03:42:27.610Z,6.38
2022-12-23T03:45:36.508Z,5.10
2022-12-23T03:47:50.743Z,6.97
2022-12-23T03:50:19.875Z,5.68
2022-12-23T03:52:57.245Z,6.75
2022-12-23T03:55:31.821Z,5.22
2022-12-23T03:58:05.262Z,7.22
2022-12-23T04:00:36.048Z,9.80
2022-12-23T04:03:16.257Z,6.68
2022-12-23T04:05:49.806Z,11.05
2022-12-23T04:08:23.367Z,5.43
2022-12-23T04:10:50.369Z,10.38
2022-12-23T04:13:17.242Z,8.13
2022-12-23T04:15:44.355Z,5.13
2022-12-23T04:18:11.632Z,7.57
2022-12-23T04:20:38.385Z,5.40
2022-12-23T04:23:05.489Z,4.63
2022-12-23T04:25:32.206Z,4.15
2022-12-23T04:27:58.947Z,7.20
2022-12-23T04:30:31.387Z,6.90
2022-12-23T04:33:00.775Z,6.28
2022-12-23T04:35:27.627Z,5.68
2022-12-23T04:37:54.548Z,5.93
2022-12-23T04:40:21.377Z,5.25
2022-12-23T04:42:48.230Z,5.43
2022-12-23T04:45:15.193Z,7.18
2022-12-23T04:47:42.046Z,21.70
2022-12-23T04:50:14.643Z,20.20
2022-12-23T04:52:41.964Z,24.67
2022-12-23T04:55:09.163Z,19.60
2022-12-23T04:57:35.951Z,17.48
2022-12-23T05:00:04.106Z,28.73
2022-12-23T05:02:31.008Z,20.50
2022-12-23T05:04:57.873Z,9.45
2022-12-23T05:07:25.122Z,5.18
2022-12-23T05:09:51.851Z,6.10
2022-12-23T05:12:18.592Z,9.73
2022-12-23T05:14:45.438Z,5.57
2022-12-23T05:17:12.139Z,6.93
2022-12-23T05:19:38.871Z,6.15
2022-12-23T05:22:05.625Z,5.55
2022-12-23T05:24:32.298Z,4.07
2022-12-23T05:27:00.646Z,5.65
2022-12-23T05:29:28.015Z,5.65
2022-12-23T05:31:54.875Z,3.90
2022-12-23T05:34:21.707Z,4.72
2022-12-23T05:36:48.638Z,5.90
2022-12-23T05:39:15.376Z,7.50
2022-12-23T05:41:42.181Z,6.22
2022-12-23T05:44:08.968Z,5.63
2022-12-23T05:46:35.891Z,4.95
2022-12-23T05:49:02.715Z,5.38
2022-12-23T05:51:29.502Z,5.88
2022-12-23T05:53:56.223Z,5.95
2022-12-23T05:56:22.963Z,5.97
2022-12-23T05:58:49.679Z,14.43
2022-12-23T06:01:16.465Z,8.27
2022-12-23T06:03:43.616Z,6.10
2022-12-23T06:06:10.504Z,5.57
2022-12-23T06:08:37.284Z,4.50
2022-12-23T06:11:05.703Z,5.07
2022-12-23T06:13:32.492Z,6.03
2022-12-23T06:15:59.330Z,9.18
2022-12-23T06:18:26.106Z,9.25
2022-12-23T06:20:52.794Z,7.40
2022-12-23T06:23:19.545Z,5.13
2022-12-23T06:25:46.260Z,4.68
2022-12-23T06:28:13.039Z,5.78
2022-12-23T06:30:39.781Z,3.00
2022-12-23T06:33:06.515Z,3.83
2022-12-23T06:35:33.323Z,3.40
2022-12-23T06:38:00.138Z,6.80
2022-12-23T06:40:29.073Z,5.55
2022-12-23T06:42:55.957Z,6.38
2022-12-23T06:45:22.805Z,5.68
2022-12-23T06:47:49.659Z,4.35
2022-12-23T06:50:16.532Z,5.03
2022-12-23T06:52:43.445Z,5.22
2022-12-23T06:55:10.266Z,4.82
2022-12-23T06:57:37.245Z,4.30
2022-12-23T07:00:08.658Z,3.55
2022-12-23T07:02:35.901Z,4.70
2022-12-23T07:05:02.808Z,5.93
2022-12-23T07:07:29.734Z,5.50
2022-12-23T07:09:56.552Z,5.45
2022-12-23T07:12:23.353Z,10.35
2022-12-23T07:14:50.105Z,26.17
2022-12-23T07:17:17.135Z,23.13
2022-12-23T07:19:43.965Z,25.38
2022-12-23T07:22:10.854Z,34.65
2022-12-23T07:24:37.907Z,24.05
2022-12-23T07:27:04.782Z,21.20
2022-12-23T07:29:31.564Z,21.15
2022-12-23T07:31:58.496Z,24.55
2022-12-23T07:34:25.333Z,28.45
2022-12-23T07:36:52.136Z,23.30
2022-12-23T07:39:18.917Z,20.48
2022-12-23T07:41:45.697Z,15.45
2022-12-23T07:44:13.144Z,14.90
2022-12-23T07:46:39.992Z,16.17
2022-12-23T07:49:06.833Z,13.90
2022-12-23T07:51:33.800Z,10.48
2022-12-23T07:54:00.633Z,16.58
2022-12-23T07:56:27.413Z,13.07
2022-12-23T07:58:54.703Z,25.50
2022-12-23T08:01:22.227Z,21.95
2022-12-23T08:03:49.319Z,20.63
2022-12-23T08:06:17.006Z,14.18
2022-12-23T08:08:46.147Z,7.38
2022-12-23T08:11:14.396Z,9.20
2022-12-23T08:13:43.226Z,9.82
2022-12-23T08:16:10.792Z,12.35
2022-12-23T08:18:40.076Z,9.07
2022-12-23T08:21:10.390Z,10.30
2022-12-23T08:23:37.145Z,8.15
2022-12-23T08:26:10.923Z,8.98
2022-12-23T08:28:39.443Z,11.40
2022-12-23T08:31:12.991Z,8.27
2022-12-23T08:33:42.225Z,13.38
2022-12-23T08:36:16.245Z,16.42
2022-12-23T08:38:48.381Z,14.65
2022-12-23T08:41:22.090Z,10.35
2022-12-23T08:43:48.969Z,14.25
2022-12-23T08:46:15.857Z,14.57
2022-12-23T08:48:48.945Z,16.27
2022-12-23T08:51:17.569Z,10.18
2022-12-23T08:53:44.685Z,7.13
2022-12-23T08:56:15.739Z,8.13
2022-12-23T08:58:45.624Z,10.38
2022-12-23T09:01:14.637Z,10.25
2022-12-23T09:03:42.809Z,14.23
2022-12-23T09:06:12.710Z,15.93
2022-12-23T09:08:39.950Z,15.93
2022-12-23T09:11:11.067Z,9.98
2022-12-23T09:13:37.929Z,14.43
2022-12-23T09:16:05.692Z,10.10
2022-12-23T09:18:32.584Z,7.50
2022-12-23T09:21:04.324Z,9.13
2022-12-23T09:23:31.506Z,12.75
2022-12-23T09:25:58.692Z,8.20
2022-12-23T09:28:26.216Z,7.20
2022-12-23T09:30:53.008Z,12.93
2022-12-23T09:33:19.960Z,7.32
2022-12-23T09:35:46.865Z,8.82
2022-12-23T09:38:13.719Z,13.45
2022-12-23T09:40:42.316Z,21.25
2022-12-23T09:43:14.696Z,18.15
2022-12-23T09:46:18.972Z,15.60
2022-12-23T09:48:56.277Z,11.52
2022-12-23T09:51:23.773Z,6.72
2022-12-23T09:54:03.316Z,8.32
2022-12-23T09:56:47.261Z,7.85
2022-12-23T09:59:44.480Z,7.03
2022-12-23T10:02:26.874Z,7.88
2022-12-23T10:05:19.095Z,7.82
2022-12-23T10:07:51.584Z,5.47
2022-12-23T10:10:41.622Z,7.93
2022-12-23T10:13:19.217Z,7.27
2022-12-23T10:15:49.277Z,5.22
2022-12-23T10:18:40.399Z,5.15
2022-12-23T10:21:26.427Z,4.93
2022-12-23T10:23:54.627Z,6.55
2022-12-23T10:26:41.635Z,6.23
2022-12-23T10:29:18.521Z,4.88
2022-12-23T10:32:22.997Z,6.43
2022-12-23T10:35:07.852Z,4.03
2022-12-23T10:38:19.058Z,4.45
2022-12-23T10:40:45.796Z,4.17
2022-12-23T10:43:49.593Z,4.05
2022-12-23T10:46:16.395Z,3.83
2022-12-23T10:48:49.429Z,3.33
2022-12-23T10:51:43.635Z,2.45
2022-12-23T10:54:14.689Z,2.97
2022-12-23T10:56:41.756Z,2.17
2022-12-23T10:59:14.884Z,2.20
2022-12-23T11:01:47.715Z,2.17
2022-12-23T11:04:18.824Z,1.90
2022-12-23T11:07:18.027Z,2.00
2022-12-23T11:09:55.113Z,2.53
2022-12-23T11:12:40.488Z,2.05
2022-12-23T11:15:29.516Z,4.47
2022-12-23T11:18:11.291Z,2.10
2022-12-23T11:20:40.185Z,2.60
2022-12-23T11:23:23.509Z,2.00
2022-12-23T11:26:01.753Z,1.80
2022-12-23T11:28:29.796Z,1.90
2022-12-23T11:31:05.547Z,2.10
2022-12-23T11:33:39.729Z,2.60
2022-12-23T11:36:14.789Z,2.35
2022-12-23T11:38:53.595Z,2.20
2022-12-23T11:41:29.326Z,1.90
2022-12-23T11:44:04.266Z,2.78
2022-12-23T11:46:33.975Z,2.00
2022-12-23T11:49:22.652Z,3.10
2022-12-23T11:52:02.351Z,1.85
2022-12-23T11:54:29.909Z,5.22
2022-12-23T11:56:58.073Z,2.05
2022-12-23T11:59:40.343Z,1.80
2022-12-23T12:02:20.611Z,1.80
2022-12-23T12:05:09.093Z,2.55
2022-12-23T12:07:36.228Z,2.00
2022-12-23T12:10:04.321Z,2.40
2022-12-23T12:12:32.666Z,2.63
2022-12-23T12:15:00.391Z,2.05
2022-12-23T12:17:49.812Z,2.08
2022-12-23T12:20:28.598Z,2.00
2022-12-23T12:23:08.999Z,2.10
2022-12-23T12:25:50.679Z,2.33
2022-12-23T12:28:32.925Z,2.55
2022-12-23T12:31:14.797Z,2.80
2022-12-23T12:33:51.049Z,2.30
2022-12-23T12:36:45.849Z,2.78
2022-12-23T12:39:31.493Z,2.50
2022-12-23T12:42:11.243Z,2.75
2022-12-23T12:44:52.297Z,3.22
2022-12-23T12:47:52.792Z,2.47
2022-12-23T12:50:28.506Z,4.78
2022-12-23T12:52:59.615Z,3.03
2022-12-23T12:55:33.258Z,2.63
2022-12-23T12:58:02.810Z,3.22
2022-12-23T13:00:41.770Z,3.88
2022-12-23T13:03:29.781Z,3.60
2022-12-23T13:06:19.206Z,4.60
2022-12-23T13:09:13.718Z,3.63
2022-12-23T13:11:46.185Z,2.58
2022-12-23T13:14:18.581Z,2.85
2022-12-23T13:17:36.032Z,2.20
2022-12-23T13:20:20.157Z,3.03
2022-12-23T13:22:50.183Z,2.60
2022-12-23T13:25:26.481Z,2.85
2022-12-23T13:27:59.011Z,4.18
2022-12-23T13:31:06.255Z,2.85
2022-12-23T13:33:42.734Z,2.77
2022-12-23T13:36:49.386Z,2.95
2022-12-23T13:39:35.044Z,3.33
2022-12-23T13:42:06.024Z,2.83
2022-12-23T13:44:34.450Z,3.10
2022-12-23T13:47:09.908Z,3.60
2022-12-23T13:49:52.944Z,2.97
2022-12-23T13:52:37.976Z,5.65
2022-12-23T13:55:23.584Z,3.33
2022-12-23T13:57:55.944Z,5.63
2022-12-23T14:00:26.586Z,3.63
2022-12-23T14:03:12.577Z,4.65
2022-12-23T14:05:50.371Z,5.28
2022-12-23T14:08:20.318Z,5.13
2022-12-23T14:11:02.231Z,4.28
2022-12-23T14:13:41.329Z,7.27
2022-12-23T14:16:29.529Z,5.50
2022-12-23T14:19:23.317Z,4.78
2022-12-23T14:21:56.125Z,5.82
2022-12-23T14:24:45.750Z,4.68
2022-12-23T14:27:36.716Z,4.27
2022-12-23T14:30:17.266Z,8.35
2022-12-23T14:32:53.147Z,5.88
2022-12-23T14:35:27.839Z,13.75
2022-12-23T14:38:07.932Z,4.82
2022-12-23T14:40:37.506Z,5.70
2022-12-23T14:43:22.964Z,10.88
2022-12-23T14:45:54.722Z,8.52
2022-12-23T14:48:37.189Z,8.57
2022-12-23T14:51:23.053Z,9.23
2022-12-23T14:53:53.662Z,8.27
2022-12-23T14:56:26.338Z,6.65
2022-12-23T14:59:11.455Z,6.57
2022-12-23T15:01:48.755Z,8.70
2022-12-23T15:04:29.328Z,8.65
2022-12-23T15:07:06.164Z,7.80
2022-12-23T15:09:38.629Z,11.88
2022-12-23T15:12:15.126Z,7.63
2022-12-23T15:14:51.090Z,7.50
2022-12-23T15:17:25.977Z,8.80
2022-12-23T15:19:53.825Z,9.47
2022-12-23T15:22:25.646Z,9.23
2022-12-23T15:24:57.011Z,8.10
2022-12-23T15:27:28.879Z,44.95
2022-12-23T15:29:57.361Z,25.35
2022-12-23T15:32:25.639Z,9.57
2022-12-23T15:34:55.552Z,18.20
2022-12-23T15:37:27.591Z,167.40
2022-12-23T15:40:04.520Z,115.95
2022-12-23T15:42:35.519Z,202.93
2022-12-23T15:45:23.407Z,47.00
2022-12-23T15:47:50.469Z,92.25
2022-12-23T15:50:18.831Z,75.80
2022-12-23T15:52:48.537Z,40.13
2022-12-23T15:55:28.142Z,62.95
2022-12-23T15:57:55.044Z,70.07
2022-12-23T16:00:25.460Z,61.03
2022-12-23T16:03:04.747Z,66.85
2022-12-23T16:05:38.737Z,83.10
2022-12-23T16:08:15.986Z,64.30
2022-12-23T16:10:55.315Z,62.63
2022-12-23T16:13:22.121Z,55.60
2022-12-23T16:15:48.910Z,70.38
2022-12-23T16:18:23.891Z,48.72
2022-12-23T16:20:57.222Z,75.97
2022-12-23T16:23:28.784Z,36.75
2022-12-23T16:25:55.522Z,40.95
2022-12-23T16:28:28.073Z,59.45
2022-12-23T16:30:57.573Z,55.65
2022-12-23T16:33:51.245Z,60.50
2022-12-23T16:36:27.146Z,66.82
2022-12-23T16:39:08.792Z,47.80
2022-12-23T16:41:35.959Z,60.45
2022-12-23T16:44:04.247Z,37.90
2022-12-23T16:46:37.234Z,70.95
2022-12-23T16:49:08.221Z,39.37
2022-12-23T16:51:35.610Z,26.55
2022-12-23T16:54:03.230Z,22.92
2022-12-23T16:56:34.515Z,23.20
2022-12-23T16:59:01.666Z,24.02
2022-12-23T17:01:34.003Z,12.73
2022-12-23T17:04:01.251Z,18.48
2022-12-23T17:06:28.645Z,23.30
2022-12-23T17:08:59.683Z,17.65
2022-12-23T17:11:41.505Z,23.60
2022-12-23T17:14:16.078Z,14.50
2022-12-23T17:16:44.570Z,12.82
2022-12-23T17:19:11.812Z,7.68
2022-12-23T17:21:40.066Z,3.33
2022-12-23T17:24:22.242Z,4.03
2022-12-23T17:26:49.766Z,3.13
2022-12-23T17:29:17.659Z,3.53
2022-12-23T17:31:45.645Z,3.67
2022-12-23T17:34:24.424Z,3.92
2022-12-23T17:36:52.822Z,4.65
2022-12-23T17:39:20.866Z,3.42
2022-12-23T17:41:48.704Z,4.47
2022-12-23T17:44:16.900Z,4.97
2022-12-23T17:46:44.901Z,7.95
2022-12-23T17:49:11.752Z,4.70
2022-12-23T17:51:40.260Z,3.97
2022-12-23T17:54:07.274Z,3.40
2022-12-23T17:56:34.368Z,3.95
2022-12-23T17:59:01.065Z,4.20
2022-12-23T18:01:30.671Z,5.78
2022-12-23T18:03:59.500Z,5.57
2022-12-23T18:06:28.703Z,4.72
2022-12-23T18:08:57.403Z,5.97
2022-12-23T18:11:44.155Z,10.88
2022-12-23T18:14:17.612Z,12.15
2022-12-23T18:16:44.534Z,8.20
2022-12-23T18:19:18.510Z,12.10
2022-12-23T18:21:45.761Z,16.55
2022-12-23T18:24:12.886Z,15.27
2022-12-23T18:26:39.706Z,7.22
2022-12-23T18:29:06.569Z,9.30
2022-12-23T18:31:33.491Z,11.77
2022-12-23T18:34:00.237Z,8.48
2022-12-23T18:36:33.296Z,11.18
2022-12-23T18:39:00.370Z,14.65
2022-12-23T18:41:28.017Z,8.55
2022-12-23T18:43:54.995Z,12.07
2022-12-23T18:46:22.046Z,8.48
2022-12-23T18:48:49.541Z,8.15
2022-12-23T18:51:19.225Z,13.70
2022-12-23T18:53:47.004Z,6.20
2022-12-23T18:56:15.178Z,3.33
2022-12-23T18:58:42.646Z,3.17
2022-12-23T19:01:14.045Z,3.55
2022-12-23T19:03:41.332Z,2.35
2022-12-23T19:06:09.995Z,2.20
2022-12-23T19:08:38.173Z,2.60
2022-12-23T19:11:17.176Z,2.42
2022-12-23T19:13:44.549Z,2.47
2022-12-23T19:16:15.161Z,3.42
2022-12-23T19:18:42.645Z,3.40
2022-12-23T19:21:09.520Z,3.15
2022-12-23T19:23:37.157Z,3.85
2022-12-23T19:26:06.167Z,7.95
2022-12-23T19:28:33.673Z,6.68
2022-12-23T19:31:00.605Z,6.27
2022-12-23T19:33:27.798Z,6.07
2022-12-23T19:35:54.595Z,6.10
2022-12-23T19:38:21.389Z,4.75
2022-12-23T19:40:57.566Z,4.72
2022-12-23T19:43:24.375Z,4.00
2022-12-23T19:46:01.946Z,7.68
2022-12-23T19:48:29.512Z,6.65
2022-12-23T19:51:01.871Z,5.60
2022-12-23T19:53:29.405Z,5.60
2022-12-23T19:55:59.235Z,4.03
2022-12-23T19:58:27.351Z,3.78
2022-12-23T20:01:13.441Z,3.33
2022-12-23T20:03:41.241Z,2.75
2022-12-23T20:06:19.656Z,2.92
2022-12-23T20:08:48.001Z,3.70
2022-12-23T20:11:17.831Z,5.00
2022-12-23T20:13:45.541Z,5.93
2022-12-23T20:16:13.442Z,7.43
2022-12-23T20:18:40.465Z,4.90
2022-12-23T20:21:07.257Z,2.28
2022-12-23T20:23:35.021Z,6.13
2022-12-23T20:26:02.393Z,4.20
2022-12-23T20:28:29.324Z,2.35
2022-12-23T20:31:29.277Z,1.88
2022-12-23T20:33:57.442Z,2.37
2022-12-23T20:36:28.126Z,1.70
2022-12-23T20:38:56.316Z,1.70
2022-12-23T20:41:25.692Z,1.50
2022-12-23T20:44:31.703Z,1.70
2022-12-23T20:46:40.393Z,1.50
2022-12-23T20:49:07.392Z,2.78
2022-12-23T20:51:34.323Z,1.40
2022-12-23T20:54:01.203Z,2.10
2022-12-23T20:56:30.314Z,1.52
2022-12-23T20:58:59.331Z,1.40
2022-12-23T21:01:29.508Z,1.50
2022-12-23T21:03:59.024Z,2.15
2022-12-23T21:06:26.566Z,2.42
2022-12-23T21:08:55.873Z,1.42
2022-12-23T21:11:23.563Z,2.37
2022-12-23T21:13:51.350Z,1.50
2022-12-23T21:16:18.910Z,1.60
2022-12-23T21:18:50.527Z,1.60
2022-12-23T21:21:17.340Z,1.40
2022-12-23T21:23:44.245Z,1.80
2022-12-23T21:26:12.880Z,1.77
2022-12-23T21:28:40.905Z,1.75
2022-12-23T21:31:08.362Z,1.60
2022-12-23T21:33:40.074Z,1.40
2022-12-23T21:36:08.328Z,1.80
2022-12-23T21:38:37.354Z,1.70
2022-12-23T21:41:06.785Z,2.15
2022-12-23T21:43:33.981Z,2.63
2022-12-23T21:46:03.645Z,1.50
2022-12-23T21:48:32.610Z,1.50
2022-12-23T21:51:06.646Z,1.40
2022-12-23T21:53:35.074Z,1.67
2022-12-23T21:56:07.057Z,1.65
2022-12-23T21:58:34.327Z,2.33
2022-12-23T22:01:06.813Z,1.80
2022-12-23T22:03:34.336Z,1.73
2022-12-23T22:06:10.613Z,1.70
2022-12-23T22:08:39.013Z,1.55
2022-12-23T22:11:07.972Z,2.13
2022-12-23T22:13:35.255Z,2.00
2022-12-23T22:16:02.238Z,1.60
2022-12-23T22:18:29.503Z,1.60
2022-12-23T22:20:56.364Z,1.50
2022-12-23T22:23:23.145Z,4.57
2022-12-23T22:25:54.636Z,3.10
2022-12-23T22:28:21.501Z,3.83
2022-12-23T22:30:48.977Z,3.70
2022-12-23T22:33:15.835Z,3.60
2022-12-23T22:35:42.891Z,5.47
2022-12-23T22:38:09.704Z,4.20
2022-12-23T22:40:36.589Z,5.93
2022-12-23T22:43:03.355Z,4.72
2022-12-23T22:45:30.238Z,4.30
2022-12-23T22:47:57.628Z,3.63
2022-12-23T22:50:24.491Z,3.33
2022-12-23T22:52:51.339Z,2.67
2022-12-23T22:55:18.393Z,2.10
2022-12-23T22:57:45.254Z,2.40
2022-12-23T23:00:12.985Z,2.55
2022-12-23T23:02:40.006Z,2.20
2022-12-23T23:05:12.659Z,2.42
2022-12-23T23:07:40.081Z,2.75
2022-12-23T23:10:07.560Z,1.90
2022-12-23T23:12:34.279Z,1.85
2022-12-23T23:15:00.992Z,2.58
2022-12-23T23:17:28.686Z,2.03
2022-12-23T23:19:55.663Z,2.42
2022-12-23T23:22:23.996Z,3.05
2022-12-23T23:24:51.447Z,1.95
2022-12-23T23:27:18.235Z,2.03
2022-12-23T23:29:45.113Z,3.83
2022-12-23T23:32:12.200Z,2.45
2022-12-23T23:34:40.602Z,4.55
2022-12-23T23:37:07.462Z,2.88
2022-12-23T23:39:34.285Z,1.85
2022-12-23T23:42:01.020Z,2.92
2022-12-23T23:44:27.963Z,2.17
2022-12-23T23:46:54.757Z,2.00
2022-12-23T23:49:22.658Z,1.70
2022-12-23T23:51:50.199Z,2.05
2022-12-23T23:54:17.538Z,2.25
2022-12-23T23:56:44.705Z,1.50
2022-12-23T23:59:11.522Z,2.00
